Time;durP1;ratioP1;P1;durP2;ratioP2;P2;SDS_P1;SDS_P2;PMS_P1;PMS_P2;Temp;Humidity;BMP_temperature;BMP_pressure;BME280_temperature;BME280_humidity;BME280_pressure;Samples;Min_cycle;Max_cycle;Signal;HPM_P1;HPM_P2
2023/05/10 00:00:04;;;;;;;;;;;;;;;18.23;71.18;100504.56;1251460;23;646;-62
2023/05/10 00:00:54;;;;;;;;;;;;;;;18.20;72.26;100508.41;1251303;23;630;-61
2023/05/10 00:01:45;;;;;;;;;;;;;;;18.20;71.25;100507.56;1251133;23;633;-62
2023/05/10 00:02:35;;;;;;;;;;;;;;;18.18;71.51;100499.63;1251433;23;625;-62
2023/05/10 00:03:26;;;;;;;;;;;;;;;18.19;71.30;100495.09;1251303;23;666;-61
2023/05/10 00:04:16;;;;;;;;;;;;;;;18.19;71.30;100498.63;1247643;23;675;-62
2023/05/10 00:05:06;;;;;;;;;;;;;;;18.20;71.60;100505.72;1247246;23;639;-61
2023/05/10 00:05:57;;;;;;;;;;;;;;;18.20;71.27;100499.47;1251309;23;725;-61
2023/05/10 00:06:47;;;;;;;;;;;;;;;18.20;70.98;100505.72;1251470;23;630;-61
2023/05/10 00:07:38;;;;;;;;;;;;;;;18.21;72.08;100504.72;1251205;23;693;-61
2023/05/10 00:08:28;;;;;;;;;;;;;;;18.20;71.40;100491.38;1251230;23;630;-61
2023/05/10 00:09:19;;;;;;;;;;;;;;;18.19;71.59;100495.09;1251372;23;669;-61
2023/05/10 00:10:09;;;;;;;;;;;;;;;18.12;71.24;100491.31;1249729;23;641;-62
2023/05/10 00:11:00;;;;;;;;;;;;;;;18.13;71.46;100501.94;1247232;23;663;-61
2023/05/10 00:11:50;;;;;;;;;;;;;;;18.14;71.57;100500.94;1247572;23;642;-61
2023/05/10 00:12:40;;;;;;;;;;;;;;;18.15;71.18;100499.94;1251501;23;637;-62
2023/05/10 00:13:31;;;;;;;;;;;;;;;18.16;71.86;100498.94;1251243;23;681;-61
2023/05/10 00:14:21;;;;;;;;;;;;;;;18.16;71.95;100498.09;1247008;23;678;-61
2023/05/10 00:15:12;;;;;;;;;;;;;;;18.17;70.81;100495.25;1247801;23;677;-61
2023/05/10 00:16:02;;;;;;;;;;;;;;;18.17;70.70;100495.25;1247503;23;1940;-62
2023/05/10 00:16:53;;;;;;;;;;;;;;;18.15;71.71;100489.16;1248319;23;697;-62
2023/05/10 00:17:43;;;;;;;;;;;;;;;18.16;71.18;100490.84;1251548;23;638;-62
2023/05/10 00:18:34;;;;;;;;;;;;;;;18.15;71.75;100493.69;1251180;23;701;-61
2023/05/10 00:19:24;;;;;;;;;;;;;;;18.15;71.37;100494.53;1246958;23;619;-61
2023/05/10 00:20:15;;;;;;;;;;;;;;;18.15;71.68;100491.84;1251380;23;701;-61
2023/05/10 00:21:05;;;;;;;;;;;;;;;18.19;70.73;100493.22;1251266;23;684;-61
2023/05/10 00:21:56;;;;;;;;;;;;;;;18.20;71.05;100488.69;1251279;23;677;-61
2023/05/10 00:22:46;;;;;;;;;;;;;;;18.19;70.59;100493.22;1251161;23;642;-62
2023/05/10 00:23:37;;;;;;;;;;;;;;;18.19;71.21;100487.00;1247190;23;638;-61
2023/05/10 00:24:27;;;;;;;;;;;;;;;18.19;71.57;100497.78;1247056;23;614;-61
2023/05/10 00:25:18;;;;;;;;;;;;;;;18.16;71.67;100493.53;1251351;23;648;-61
2023/05/10 00:26:08;;;;;;;;;;;;;;;18.17;70.92;100491.69;1251478;23;752;-61
2023/05/10 00:27:00;;;;;;;;;;;;;;;18.15;70.78;100489.16;1251185;23;626;-61
2023/05/10 00:27:50;;;;;;;;;;;;;;;18.17;70.60;100492.53;1247135;23;655;-61
2023/05/10 00:28:41;;;;;;;;;;;;;;;18.17;71.36;100497.94;1251215;23;665;-61
2023/05/10 00:29:32;;;;;;;;;;;;;;;18.16;70.80;100495.38;1247102;23;623;-61
2023/05/10 00:30:23;;;;;;;;;;;;;;;18.15;70.89;100497.25;1247778;23;586;-61
2023/05/10 00:31:14;;;;;;;;;;;;;;;18.14;70.78;100495.53;1250233;23;630;-62
2023/05/10 00:32:05;;;;;;;;;;;;;;;18.14;71.07;100492.00;1249791;23;622;-61
2023/05/10 00:32:56;;;;;;;;;;;;;;;18.13;70.60;100490.31;1251179;23;657;-61
2023/05/10 00:33:46;;;;;;;;;;;;;;;18.11;70.71;100503.94;1250518;23;638;-61
2023/05/10 00:34:37;;;;;;;;;;;;;;;18.09;71.18;100499.75;1251393;23;630;-61
2023/05/10 00:35:27;;;;;;;;;;;;;;;18.09;70.76;100500.59;1251334;23;708;-61
2023/05/10 00:36:17;;;;;;;;;;;;;;;18.11;70.98;100503.09;1251304;23;1893;-61
2023/05/10 00:37:08;;;;;;;;;;;;;;;18.09;70.80;100500.59;1251357;23;661;-61
2023/05/10 00:37:58;;;;;;;;;;;;;;;18.10;70.53;100501.41;1251452;23;654;-61
2023/05/10 00:38:49;;;;;;;;;;;;;;;18.09;70.67;100497.88;1251175;23;626;-61
2023/05/10 00:39:39;;;;;;;;;;;;;;;18.08;71.31;100504.28;1251390;23;634;-61
2023/05/10 00:40:30;;;;;;;;;;;;;;;18.09;71.16;100503.28;1251284;23;634;-61
2023/05/10 00:41:21;;;;;;;;;;;;;;;18.11;71.38;100508.50;1247534;23;682;-61
2023/05/10 00:42:12;;;;;;;;;;;;;;;18.11;70.71;100506.63;1249985;23;678;-61
2023/05/10 00:43:02;;;;;;;;;;;;;;;18.12;70.72;100502.94;1248115;23;690;-61
2023/05/10 00:43:53;;;;;;;;;;;;;;;18.10;71.16;100498.69;1247250;23;961;-61
2023/05/10 00:44:43;;;;;;;;;;;;;;;18.10;71.22;100502.25;1246927;23;619;-61
2023/05/10 00:45:34;;;;;;;;;;;;;;;18.10;71.24;100498.69;1251203;23;654;-61
2023/05/10 00:46:24;;;;;;;;;;;;;;;18.11;70.13;100500.41;1251254;23;617;-61
2023/05/10 00:47:15;;;;;;;;;;;;;;;18.11;70.42;100501.25;1251403;23;653;-62
2023/05/10 00:48:05;;;;;;;;;;;;;;;18.12;70.32;100500.25;1250416;23;1114;-61
2023/05/10 00:48:55;;;;;;;;;;;;;;;18.10;70.58;100504.94;1251311;23;626;-61
2023/05/10 00:49:46;;;;;;;;;;;;;;;18.10;70.23;100498.69;1251127;23;708;-62
2023/05/10 00:50:36;;;;;;;;;;;;;;;18.10;70.41;100499.56;1251449;23;693;-61
2023/05/10 00:51:27;;;;;;;;;;;;;;;18.08;70.88;100500.75;1251242;23;626;-61
2023/05/10 00:52:17;;;;;;;;;;;;;;;18.08;70.91;100504.28;1251064;23;657;-62
2023/05/10 00:53:08;;;;;;;;;;;;;;;18.08;70.90;100500.75;1251278;23;615;-61
2023/05/10 00:53:58;;;;;;;;;;;;;;;18.05;71.12;100501.91;1251080;23;649;-61
2023/05/10 00:54:48;;;;;;;;;;;;;;;18.06;69.88;100505.44;1251410;23;634;-61
2023/05/10 00:55:39;;;;;;;;;;;;;;;18.06;70.56;100502.75;1251221;23;634;-61
2023/05/10 00:56:29;;;;;;;;;;;;;;;18.03;70.31;100507.44;1251502;23;1897;-61
2023/05/10 00:57:20;;;;;;;;;;;;;;;18.04;71.16;100498.34;1251259;23;646;-61
2023/05/10 00:58:10;;;;;;;;;;;;;;;18.02;69.62;100508.44;1250580;23;669;-61
2023/05/10 00:59:01;;;;;;;;;;;;;;;17.97;70.85;100499.13;1251123;23;665;-61
2023/05/10 00:59:51;;;;;;;;;;;;;;;17.98;70.14;100503.50;1251235;23;614;-61
2023/05/10 01:00:42;;;;;;;;;;;;;;;18.01;71.05;100505.91;1251182;23;626;-61
2023/05/10 01:01:32;;;;;;;;;;;;;;;17.94;69.79;100511.06;1251077;23;680;-61
2023/05/10 01:02:23;;;;;;;;;;;;;;;17.88;70.45;100505.44;1250820;23;622;-62
2023/05/10 01:03:14;;;;;;;;;;;;;;;17.90;70.92;100514.25;1251185;23;630;-61
2023/05/10 01:04:04;;;;;;;;;;;;;;;17.91;70.86;100510.53;1247286;23;674;-61
2023/05/10 01:04:54;;;;;;;;;;;;;;;17.95;70.69;100511.91;1251365;23;681;-61
2023/05/10 01:05:45;;;;;;;;;;;;;;;17.96;70.88;100510.91;1251118;23;668;-61
2023/05/10 01:06:35;;;;;;;;;;;;;;;17.97;71.00;100507.19;1246960;23;662;-61
2023/05/10 01:07:26;;;;;;;;;;;;;;;17.98;71.05;100508.91;1251268;23;630;-62
2023/05/10 01:08:16;;;;;;;;;;;;;;;17.95;70.55;100510.06;1251092;23;649;-62
2023/05/10 01:09:07;;;;;;;;;;;;;;;17.96;71.08;100510.91;1251265;23;653;-62
2023/05/10 01:09:57;;;;;;;;;;;;;;;17.92;69.80;100499.56;1251076;23;642;-61
2023/05/10 01:10:49;;;;;;;;;;;;;;;17.92;69.49;100506.81;1251242;23;610;-61
2023/05/10 01:11:39;;;;;;;;;;;;;;;17.82;70.15;100514.16;1251116;23;694;-61
2023/05/10 01:12:30;;;;;;;;;;;;;;;17.87;70.99;100515.38;1246868;23;627;-61
2023/05/10 01:13:20;;;;;;;;;;;;;;;17.92;71.17;100509.50;1251024;23;676;-62
2023/05/10 01:14:11;;;;;;;;;;;;;;;17.94;70.49;100515.59;1251279;23;617;-61
2023/05/10 01:15:01;;;;;;;;;;;;;;;17.95;70.80;100507.34;1247332;23;673;-61
2023/05/10 01:15:51;;;;;;;;;;;;;;;17.97;70.85;100509.91;1251435;23;626;-61
2023/05/10 01:16:42;;;;;;;;;;;;;;;17.97;70.28;100510.75;1247561;23;631;-61
2023/05/10 01:17:32;;;;;;;;;;;;;;;17.96;70.99;100514.44;1247869;23;682;-61
2023/05/10 01:18:23;;;;;;;;;;;;;;;17.89;69.80;100512.53;1247848;23;634;-61
2023/05/10 01:19:13;;;;;;;;;;;;;;;17.79;71.10;100506.38;1251027;23;673;-62
2023/05/10 01:20:03;;;;;;;;;;;;;;;17.79;70.83;100506.38;1251345;23;610;-62
2023/05/10 01:20:54;;;;;;;;;;;;;;;17.81;71.23;100509.75;1251079;23;727;-62
2023/05/10 01:21:44;;;;;;;;;;;;;;;17.84;71.15;100510.31;1249413;23;665;-62
2023/05/10 01:22:35;;;;;;;;;;;;;;;17.79;70.14;100511.75;1247106;23;650;-62
2023/05/10 01:23:25;;;;;;;;;;;;;;;17.84;70.66;100512.16;1250955;23;697;-61
2023/05/10 01:24:16;;;;;;;;;;;;;;;17.88;71.42;100503.59;1251318;23;646;-61
2023/05/10 01:25:06;;;;;;;;;;;;;;;17.82;71.03;100511.44;1251115;23;618;-61
2023/05/10 01:25:56;;;;;;;;;;;;;;;17.85;71.43;100512.00;1251272;23;650;-61
2023/05/10 01:26:47;;;;;;;;;;;;;;;17.87;71.06;100511.84;1247188;23;713;-61
2023/05/10 01:27:37;;;;;;;;;;;;;;;17.90;70.87;100511.53;1251449;23;677;-61
2023/05/10 01:28:28;;;;;;;;;;;;;;;17.92;70.63;100512.19;1251272;23;655;-62
2023/05/10 01:29:18;;;;;;;;;;;;;;;17.94;71.12;100516.44;1247331;23;674;-62
2023/05/10 01:30:09;;;;;;;;;;;;;;;17.94;70.60;100510.19;1251244;23;662;-61
2023/05/10 01:30:59;;;;;;;;;;;;;;;17.94;70.99;100510.19;1246877;23;623;-61
2023/05/10 01:31:50;;;;;;;;;;;;;;;17.94;71.51;100504.81;1246724;23;1326;-61
2023/05/10 01:32:40;;;;;;;;;;;;;;;17.96;71.01;100509.06;1251389;23;618;-61
2023/05/10 01:33:31;;;;;;;;;;;;;;;17.92;70.92;100506.81;1251212;23;657;-61
2023/05/10 01:34:21;;;;;;;;;;;;;;;17.93;71.71;100508.50;1251008;23;775;-62
2023/05/10 01:35:12;;;;;;;;;;;;;;;17.87;70.66;100514.53;1251227;23;661;-61
2023/05/10 01:36:02;;;;;;;;;;;;;;;17.86;71.54;100508.31;1250980;23;646;-61
2023/05/10 01:36:53;;;;;;;;;;;;;;;17.86;71.17;100507.44;1251289;23;629;-62
2023/05/10 01:37:43;;;;;;;;;;;;;;;17.86;70.21;100502.91;1250942;23;622;-61
2023/05/10 01:38:34;;;;;;;;;;;;;;;17.78;70.96;100510.06;1251145;23;634;-62
2023/05/10 01:39:24;;;;;;;;;;;;;;;17.68;71.28;100502.91;1251036;23;654;-61
2023/05/10 01:40:14;;;;;;;;;;;;;;;17.57;70.10;100503.09;1251360;23;622;-61
2023/05/10 01:41:05;;;;;;;;;;;;;;;17.63;71.91;100502.47;1251111;23;658;-61
2023/05/10 01:41:55;;;;;;;;;;;;;;;17.72;72.12;100505.31;1250942;23;630;-61
2023/05/10 01:42:46;;;;;;;;;;;;;;;17.79;71.11;100507.22;1251182;23;750;-61
2023/05/10 01:43:36;;;;;;;;;;;;;;;17.86;71.73;100511.00;1251282;23;611;-62
2023/05/10 01:44:27;;;;;;;;;;;;;;;17.90;70.74;100508.84;1251216;23;673;-62
2023/05/10 01:45:17;;;;;;;;;;;;;;;17.93;71.69;100508.50;1251141;23;641;-61
2023/05/10 01:46:10;;;;;;;;;;;;;;;17.90;70.91;100508.84;1246337;23;619;-61
2023/05/10 01:47:01;;;;;;;;;;;;;;;17.89;72.08;100513.38;1251207;23;610;-61
2023/05/10 01:47:51;;;;;;;;;;;;;;;17.91;71.07;100510.53;1251167;23;708;-62
2023/05/10 01:48:46;;;;;;;;;;;;;;;17.90;71.42;100511.53;1251261;23;645;-62
2023/05/10 01:49:36;;;;;;;;;;;;;;;17.91;71.22;100507.84;1247295;23;631;-61
2023/05/10 01:50:26;;;;;;;;;;;;;;;17.90;71.13;100509.69;1251285;23;657;-62
2023/05/10 01:51:17;;;;;;;;;;;;;;;17.91;70.86;100507.84;1251182;23;692;-61
2023/05/10 01:52:07;;;;;;;;;;;;;;;17.89;70.82;100508.00;1251231;23;658;-61
2023/05/10 01:52:58;;;;;;;;;;;;;;;17.87;71.83;100507.31;1251156;23;634;-62
2023/05/10 01:53:48;;;;;;;;;;;;;;;17.89;71.40;100508.00;1250971;23;633;-61
2023/05/10 01:54:39;;;;;;;;;;;;;;;17.91;70.88;100510.53;1251390;23;637;-61
2023/05/10 01:55:30;;;;;;;;;;;;;;;17.92;71.36;100506.81;1251014;23;720;-62
2023/05/10 01:56:21;;;;;;;;;;;;;;;17.92;71.21;100509.50;1250892;23;1897;-62
2023/05/10 01:57:13;;;;;;;;;;;;;;;17.92;71.23;100514.91;1247332;23;714;-61
2023/05/10 01:58:04;;;;;;;;;;;;;;;17.90;71.20;100514.25;1246953;23;651;-61
2023/05/10 01:58:54;;;;;;;;;;;;;;;17.91;71.20;100521.31;1251073;23;641;-61
2023/05/10 01:59:44;;;;;;;;;;;;;;;17.91;71.42;100515.94;1246810;23;666;-62
2023/05/10 02:00:35;;;;;;;;;;;;;;;17.91;70.91;100513.25;1250488;23;649;-62
2023/05/10 02:01:26;;;;;;;;;;;;;;;17.91;71.58;100519.47;1251219;23;622;-61
2023/05/10 02:02:16;;;;;;;;;;;;;;;17.90;71.02;100520.47;1247216;23;626;-61
2023/05/10 02:03:06;;;;;;;;;;;;;;;17.91;71.06;100513.25;1251308;23;618;-62
2023/05/10 02:03:57;;;;;;;;;;;;;;;17.91;71.23;100514.09;1251117;23;602;-62
2023/05/10 02:04:47;;;;;;;;;;;;;;;17.92;71.34;100523.84;1247179;23;678;-61
2023/05/10 02:05:38;;;;;;;;;;;;;;;17.92;71.45;100515.75;1251180;23;665;-61
2023/05/10 02:06:28;;;;;;;;;;;;;;;17.93;71.71;100522.00;1251071;23;637;-62
2023/05/10 02:07:19;;;;;;;;;;;;;;;17.81;71.22;100518.69;1251382;23;618;-62
2023/05/10 02:08:09;;;;;;;;;;;;;;;17.83;71.60;100516.69;1250945;23;618;-62
2023/05/10 02:08:59;;;;;;;;;;;;;;;17.88;71.45;100516.25;1246795;23;655;-62
2023/05/10 02:09:50;;;;;;;;;;;;;;;17.83;71.72;100516.69;1251080;23;614;-62
2023/05/10 02:10:40;;;;;;;;;;;;;;;17.86;71.32;100518.22;1251132;23;638;-62
2023/05/10 02:11:31;;;;;;;;;;;;;;;17.88;71.73;100516.25;1251177;23;665;-62
2023/05/10 02:12:21;;;;;;;;;;;;;;;17.89;71.00;100516.09;1251051;23;680;-62
2023/05/10 02:13:12;;;;;;;;;;;;;;;17.89;71.27;100523.31;1246889;23;659;-61
2023/05/10 02:14:02;;;;;;;;;;;;;;;17.79;70.69;100518.00;1251080;23;638;-62
2023/05/10 02:14:52;;;;;;;;;;;;;;;17.80;71.39;100526.94;1246298;23;627;-62
2023/05/10 02:15:43;;;;;;;;;;;;;;;17.73;70.79;100524.03;1247107;23;631;-61
2023/05/10 02:16:33;;;;;;;;;;;;;;;17.60;71.09;100521.66;1250877;23;1862;-62
2023/05/10 02:17:24;;;;;;;;;;;;;;;17.69;72.11;100523.47;1251137;23;673;-62
2023/05/10 02:18:15;;;;;;;;;;;;;;;17.76;71.40;100517.44;1247329;23;618;-62
2023/05/10 02:19:05;;;;;;;;;;;;;;;17.69;71.41;100522.63;1247490;23;698;-61
2023/05/10 02:19:56;;;;;;;;;;;;;;;17.73;71.63;100523.16;1247720;23;623;-62
2023/05/10 02:20:46;;;;;;;;;;;;;;;17.78;71.46;100523.53;1250961;23;685;-62
2023/05/10 02:21:37;;;;;;;;;;;;;;;17.80;71.08;100519.69;1251214;23;673;-61
2023/05/10 02:22:27;;;;;;;;;;;;;;;17.83;71.24;100523.94;1251100;23;657;-62
2023/05/10 02:23:18;;;;;;;;;;;;;;;17.81;70.35;100525.94;1249449;23;673;-61
2023/05/10 02:24:08;;;;;;;;;;;;;;;17.77;71.93;100521.84;1247123;23;702;-62
2023/05/10 02:24:58;;;;;;;;;;;;;;;17.81;71.19;100521.38;1249514;23;786;-62
2023/05/10 02:25:49;;;;;;;;;;;;;;;17.75;71.71;100526.53;1246996;23;646;-61
2023/05/10 02:26:39;;;;;;;;;;;;;;;17.79;71.84;100526.06;1250880;23;670;-62
2023/05/10 02:27:30;;;;;;;;;;;;;;;17.83;71.77;100527.47;1246905;23;639;-62
2023/05/10 02:28:20;;;;;;;;;;;;;;;17.84;71.34;100525.63;1251071;23;674;-62
2023/05/10 02:29:12;;;;;;;;;;;;;;;17.85;71.19;100530.03;1251219;23;626;-62
2023/05/10 02:30:02;;;;;;;;;;;;;;;17.72;70.04;100526.88;1250972;23;667;-62
2023/05/10 02:30:53;;;;;;;;;;;;;;;17.53;70.71;100533.19;1246818;23;707;-62
2023/05/10 02:31:43;;;;;;;;;;;;;;;17.55;70.35;100536.59;1251140;23;653;-62
2023/05/10 02:32:33;;;;;;;;;;;;;;;17.47;70.65;100536.50;1250924;23;654;-61
2023/05/10 02:33:24;;;;;;;;;;;;;;;17.45;71.04;100533.94;1251097;23;634;-61
2023/05/10 02:34:14;;;;;;;;;;;;;;;17.54;71.15;100537.59;1251034;23;673;-62
2023/05/10 02:35:05;;;;;;;;;;;;;;;17.51;71.87;100538.75;1249481;23;619;-61
2023/05/10 02:35:55;;;;;;;;;;;;;;;17.54;72.17;100540.28;1251049;23;621;-62
2023/05/10 02:36:46;;;;;;;;;;;;;;;17.64;72.50;100539.25;1251123;23;669;-62
2023/05/10 02:37:36;;;;;;;;;;;;;;;17.68;72.03;100534.41;1251107;23;696;-62
2023/05/10 02:38:27;;;;;;;;;;;;;;;17.73;71.83;100540.19;1250876;23;650;-62
2023/05/10 02:39:17;;;;;;;;;;;;;;;17.71;70.86;100541.34;1251089;23;665;-61
2023/05/10 02:40:07;;;;;;;;;;;;;;;17.57;71.28;100545.34;1247367;23;615;-62
2023/05/10 02:40:58;;;;;;;;;;;;;;;17.61;72.02;100533.28;1249004;23;650;-62
2023/05/10 02:41:48;;;;;;;;;;;;;;;17.52;69.90;100536.91;1247836;23;639;-62
2023/05/10 02:42:39;;;;;;;;;;;;;;;17.56;71.47;100541.81;1251101;23;669;-61
2023/05/10 02:43:29;;;;;;;;;;;;;;;17.61;70.13;100536.81;1251099;23;642;-61
2023/05/10 02:44:20;;;;;;;;;;;;;;;17.58;72.18;100531.72;1248711;23;769;-62
2023/05/10 02:45:11;;;;;;;;;;;;;;;17.50;71.26;100539.75;1251036;23;657;-61
2023/05/10 02:46:01;;;;;;;;;;;;;;;17.46;71.91;100543.72;1246985;23;655;-62
2023/05/10 02:46:51;;;;;;;;;;;;;;;17.49;71.56;100543.44;1246700;23;630;-62
2023/05/10 02:47:43;;;;;;;;;;;;;;;17.29;70.47;100547.22;1249406;23;642;-62
2023/05/10 02:48:33;;;;;;;;;;;;;;;17.09;70.15;100541.09;1249438;23;657;-63
2023/05/10 02:49:24;;;;;;;;;;;;;;;17.07;71.30;100542.22;1251030;23;696;-62
2023/05/10 02:50:14;;;;;;;;;;;;;;;17.16;72.01;100550.28;1250976;23;637;-62
2023/05/10 02:51:05;;;;;;;;;;;;;;;17.32;71.82;100541.56;1251149;23;633;-62
2023/05/10 02:51:56;;;;;;;;;;;;;;;17.29;72.01;100547.22;1251015;23;650;-62
2023/05/10 02:52:46;;;;;;;;;;;;;;;17.40;71.41;100554.25;1250815;23;658;-62
2023/05/10 02:53:37;;;;;;;;;;;;;;;17.32;71.48;100552.31;1251055;23;673;-61
2023/05/10 02:54:28;;;;;;;;;;;;;;;17.24;71.20;100546.81;1250892;23;673;-62
2023/05/10 02:55:18;;;;;;;;;;;;;;;17.20;71.00;100540.88;1250877;23;654;-61
2023/05/10 02:56:09;;;;;;;;;;;;;;;17.20;70.89;100553.50;1250950;23;1913;-62
2023/05/10 02:57:00;;;;;;;;;;;;;;;17.34;72.43;100547.63;1250820;23;634;-62
2023/05/10 02:57:50;;;;;;;;;;;;;;;17.43;71.78;100551.25;1250863;23;657;-61
2023/05/10 02:58:41;;;;;;;;;;;;;;;17.31;69.58;100550.63;1250519;23;669;-62
2023/05/10 02:59:32;;;;;;;;;;;;;;;17.20;70.39;100556.19;1250937;23;673;-62
2023/05/10 03:00:22;;;;;;;;;;;;;;;17.24;71.08;100552.22;1251134;23;633;-62
2023/05/10 03:01:13;;;;;;;;;;;;;;;17.19;71.86;100546.44;1251104;23;602;-62
2023/05/10 03:02:03;;;;;;;;;;;;;;;17.22;70.39;100548.81;1250861;23;641;-61
2023/05/10 03:02:54;;;;;;;;;;;;;;;17.22;72.05;100548.81;1250996;23;665;-62
2023/05/10 03:03:44;;;;;;;;;;;;;;;17.34;71.36;100551.19;1251003;23;672;-61
2023/05/10 03:04:35;;;;;;;;;;;;;;;17.40;70.78;100541.63;1251007;23;653;-61
2023/05/10 03:05:25;;;;;;;;;;;;;;;17.47;70.65;100545.44;1251055;23;657;-62
2023/05/10 03:06:16;;;;;;;;;;;;;;;17.51;70.51;100544.13;1249393;23;720;-62
2023/05/10 03:07:06;;;;;;;;;;;;;;;17.40;71.13;100548.84;1247202;23;662;-62
2023/05/10 03:07:57;;;;;;;;;;;;;;;17.45;71.47;100549.25;1251124;23;625;-62
2023/05/10 03:08:47;;;;;;;;;;;;;;;17.49;70.65;100545.28;1250905;23;664;-62
2023/05/10 03:09:38;;;;;;;;;;;;;;;17.31;71.09;100545.25;1251214;23;701;-62
2023/05/10 03:10:28;;;;;;;;;;;;;;;17.31;71.65;100542.53;1251089;23;685;-61
2023/05/10 03:11:18;;;;;;;;;;;;;;;17.40;71.15;100546.16;1250872;23;649;-62
2023/05/10 03:12:09;;;;;;;;;;;;;;;17.43;71.39;100546.72;1251096;23;633;-62
2023/05/10 03:13:00;;;;;;;;;;;;;;;17.52;71.13;100545.81;1250343;23;630;-62
2023/05/10 03:13:50;;;;;;;;;;;;;;;17.56;71.11;100539.09;1247198;23;678;-62
2023/05/10 03:14:41;;;;;;;;;;;;;;;17.39;70.81;100537.22;1251126;23;529;-61
2023/05/10 03:15:31;;;;;;;;;;;;;;;17.43;70.96;100538.63;1247077;23;693;-62
2023/05/10 03:16:22;;;;;;;;;;;;;;;17.41;71.91;100537.94;1251010;23;1889;-62
2023/05/10 03:17:12;;;;;;;;;;;;;;;17.47;71.44;100534.66;1251042;23;665;-62
2023/05/10 03:18:03;;;;;;;;;;;;;;;17.34;71.64;100543.09;1251138;23;645;-62
2023/05/10 03:18:53;;;;;;;;;;;;;;;17.19;71.63;100546.44;1251164;23;665;-62
2023/05/10 03:19:44;;;;;;;;;;;;;;;17.27;71.45;100549.22;1247577;23;658;-62
2023/05/10 03:20:34;;;;;;;;;;;;;;;17.37;71.52;100536.56;1247321;23;655;-62
2023/05/10 03:21:24;;;;;;;;;;;;;;;17.35;70.73;100546.63;1247904;23;622;-62
2023/05/10 03:22:15;;;;;;;;;;;;;;;17.43;70.98;100540.47;1247256;23;619;-62
2023/05/10 03:23:05;;;;;;;;;;;;;;;17.49;70.68;100542.59;1251378;23;657;-62
2023/05/10 03:23:56;;;;;;;;;;;;;;;17.55;71.21;100545.53;1251508;23;625;-61
2023/05/10 03:24:46;;;;;;;;;;;;;;;17.58;71.00;100547.91;1251299;23;681;-62
2023/05/10 03:25:36;;;;;;;;;;;;;;;17.56;70.62;100539.09;1251584;23;653;-62
2023/05/10 03:26:28;;;;;;;;;;;;;;;17.54;70.58;100554.59;1247675;23;685;-62
2023/05/10 03:27:18;;;;;;;;;;;;;;;17.49;71.72;100546.13;1247710;23;690;-62
2023/05/10 03:28:08;;;;;;;;;;;;;;;17.31;70.00;100548.78;1247996;23;666;-61
2023/05/10 03:28:59;;;;;;;;;;;;;;;17.31;71.39;100551.47;1251370;23;626;-62
2023/05/10 03:29:50;;;;;;;;;;;;;;;17.20;71.56;100548.13;1251220;23;688;-62
2023/05/10 03:30:40;;;;;;;;;;;;;;;17.27;70.85;100554.59;1251507;23;610;-62
2023/05/10 03:31:30;;;;;;;;;;;;;;;17.29;71.40;100558.00;1247586;23;690;-61
2023/05/10 03:32:21;;;;;;;;;;;;;;;17.35;71.57;100557.41;1251449;23;681;-61
2023/05/10 03:33:12;;;;;;;;;;;;;;;17.27;70.85;100554.59;1251277;23;642;-62
2023/05/10 03:34:03;;;;;;;;;;;;;;;17.20;70.74;100556.19;1251558;23;665;-62
2023/05/10 03:34:53;;;;;;;;;;;;;;;16.97;70.76;100561.97;1251182;23;626;-61
2023/05/10 03:35:45;;;;;;;;;;;;;;;16.95;72.35;100555.91;1251474;23;661;-62
2023/05/10 03:36:36;;;;;;;;;;;;;;;17.13;71.38;100553.28;1251465;23;1901;-62
2023/05/10 03:37:26;;;;;;;;;;;;;;;17.27;71.24;100560.00;1251459;23;657;-62
2023/05/10 03:38:16;;;;;;;;;;;;;;;17.34;71.12;100561.09;1251248;23;677;-62
2023/05/10 03:39:07;;;;;;;;;;;;;;;17.36;70.70;100553.72;1251501;23;630;-62
2023/05/10 03:39:57;;;;;;;;;;;;;;;17.28;71.62;100561.69;1247505;23;658;-62
2023/05/10 03:40:48;;;;;;;;;;;;;;;17.18;70.80;100558.22;1249612;23;674;-62
2023/05/10 03:41:38;;;;;;;;;;;;;;;17.14;70.81;100554.97;1247367;23;639;-62
2023/05/10 03:42:28;;;;;;;;;;;;;;;17.17;71.62;100553.81;1251201;23;681;-62
2023/05/10 03:43:19;;;;;;;;;;;;;;;17.14;70.17;100554.97;1251465;23;657;-61
2023/05/10 03:44:09;;;;;;;;;;;;;;;17.04;70.79;100569.44;1247611;23;647;-62
2023/05/10 03:45:00;;;;;;;;;;;;;;;17.02;71.72;100564.22;1247272;23;674;-61
2023/05/10 03:45:50;;;;;;;;;;;;;;;17.08;71.46;100565.47;1247452;23;691;-62
2023/05/10 03:46:41;;;;;;;;;;;;;;;17.07;71.42;100571.84;1251418;23;622;-62
2023/05/10 03:47:32;;;;;;;;;;;;;;;17.13;71.53;100568.56;1251421;23;740;-62
2023/05/10 03:48:22;;;;;;;;;;;;;;;17.09;70.97;100568.00;1251309;23;660;-61
2023/05/10 03:49:13;;;;;;;;;;;;;;;17.17;71.53;100564.59;1251574;23;641;-62
2023/05/10 03:50:03;;;;;;;;;;;;;;;17.11;70.23;100566.03;1251286;23;638;-62
2023/05/10 03:50:54;;;;;;;;;;;;;;;17.13;70.64;100560.50;1247063;23;659;-61
2023/05/10 03:51:44;;;;;;;;;;;;;;;16.95;70.19;100566.66;1251356;23;634;-62
2023/05/10 03:52:35;;;;;;;;;;;;;;;17.00;72.44;100569.78;1246994;23;650;-62
2023/05/10 03:53:26;;;;;;;;;;;;;;;17.16;71.00;100565.59;1251327;23;673;-62
2023/05/10 03:54:17;;;;;;;;;;;;;;;17.13;70.99;100569.41;1247561;23;651;-62
2023/05/10 03:55:07;;;;;;;;;;;;;;;16.94;70.13;100562.28;1247735;23;655;-61
2023/05/10 03:55:57;;;;;;;;;;;;;;;17.07;71.70;100566.47;1248177;23;667;-62
2023/05/10 03:56:48;;;;;;;;;;;;;;;17.11;70.66;100567.88;1250789;23;605;-62
2023/05/10 03:57:38;;;;;;;;;;;;;;;17.17;71.60;100570.81;1251216;23;618;-61
2023/05/10 03:58:29;;;;;;;;;;;;;;;17.10;70.98;100575.09;1251460;23;614;-62
2023/05/10 03:59:19;;;;;;;;;;;;;;;17.03;71.08;100573.97;1251401;23;638;-62
2023/05/10 04:00:10;;;;;;;;;;;;;;;17.09;72.17;100572.56;1247649;23;655;-61
2023/05/10 04:01:00;;;;;;;;;;;;;;;17.10;71.13;100574.25;1247853;23;670;-61
2023/05/10 04:01:51;;;;;;;;;;;;;;;17.18;71.67;100572.53;1249861;23;614;-61
2023/05/10 04:02:41;;;;;;;;;;;;;;;17.21;71.12;100566.81;1251362;23;650;-62
2023/05/10 04:03:31;;;;;;;;;;;;;;;17.16;70.07;100570.97;1251070;23;689;-61
2023/05/10 04:04:23;;;;;;;;;;;;;;;17.04;70.48;100569.44;1251453;23;634;-61
2023/05/10 04:05:13;;;;;;;;;;;;;;;16.98;70.83;100577.13;1251403;23;615;-61
2023/05/10 04:06:03;;;;;;;;;;;;;;;16.90;71.08;100577.00;1247598;23;666;-61
2023/05/10 04:06:54;;;;;;;;;;;;;;;17.06;71.99;100567.47;1251360;23;629;-61
2023/05/10 04:07:45;;;;;;;;;;;;;;;17.14;70.91;100570.28;1251449;23;670;-61
2023/05/10 04:08:35;;;;;;;;;;;;;;;17.04;69.86;100572.13;1251224;23;680;-61
2023/05/10 04:09:26;;;;;;;;;;;;;;;17.01;70.94;100581.38;1247080;23;631;-62
2023/05/10 04:10:16;;;;;;;;;;;;;;;17.02;70.67;100571.47;1247691;23;678;-62
2023/05/10 04:11:07;;;;;;;;;;;;;;;16.93;70.74;100565.97;1246956;23;892;-61
2023/05/10 04:11:57;;;;;;;;;;;;;;;16.89;71.13;100578.00;1248262;23;654;-62
2023/05/10 04:12:48;;;;;;;;;;;;;;;16.83;70.65;100573.22;1247158;23;635;-61
2023/05/10 04:13:38;;;;;;;;;;;;;;;16.66;71.28;100569.41;1251288;23;629;-61
2023/05/10 04:14:29;;;;;;;;;;;;;;;16.63;71.75;100572.44;1249749;23;693;-61
2023/05/10 04:15:19;;;;;;;;;;;;;;;16.78;72.13;100570.13;1251405;23;610;-61
2023/05/10 04:16:10;;;;;;;;;;;;;;;16.94;71.64;100570.34;1251540;23;748;-62
2023/05/10 04:17:00;;;;;;;;;;;;;;;17.05;71.07;100579.22;1251260;23;647;-62
2023/05/10 04:17:51;;;;;;;;;;;;;;;17.16;71.20;100571.81;1251180;23;645;-62
2023/05/10 04:18:41;;;;;;;;;;;;;;;17.23;70.90;100572.06;1251322;23;630;-62
2023/05/10 04:19:31;;;;;;;;;;;;;;;17.27;71.04;100568.06;1251264;23;623;-62
2023/05/10 04:20:22;;;;;;;;;;;;;;;17.32;70.72;100573.88;1251491;23;661;-61
2023/05/10 04:21:13;;;;;;;;;;;;;;;17.33;71.02;100567.50;1251111;23;635;-61
2023/05/10 04:22:03;;;;;;;;;;;;;;;17.35;70.82;100574.44;1251156;23;714;-62
2023/05/10 04:22:54;;;;;;;;;;;;;;;17.25;70.27;100580.84;1249691;23;649;-61
2023/05/10 04:23:44;;;;;;;;;;;;;;;17.24;71.23;100576.44;1251261;23;646;-62
2023/05/10 04:24:35;;;;;;;;;;;;;;;17.24;70.45;100571.06;1251477;23;744;-62
2023/05/10 04:25:25;;;;;;;;;;;;;;;17.18;69.87;100572.53;1250792;23;606;-62
2023/05/10 04:26:15;;;;;;;;;;;;;;;17.15;70.97;100578.19;1251171;23;665;-61